sensor_id;sensor_type;location;lat;lon;timestamp;pressure;altitude;pressure_sealevel;temperature;humidity
60854;BME280;48554;50.766;2.900;2022-07-05T00:00:16;101627.88;;;22.34;46.91
60854;BME280;48554;50.766;2.900;2022-07-05T00:02:36;101625.41;;;22.33;46.88
60854;BME280;48554;50.766;2.900;2022-07-05T00:04:56;101621.66;;;22.34;46.90
60854;BME280;48554;50.766;2.900;2022-07-05T00:07:17;101622.47;;;22.34;46.72
60854;BME280;48554;50.766;2.900;2022-07-05T00:09:38;101622.72;;;22.33;46.89
60854;BME280;48554;50.766;2.900;2022-07-05T00:11:58;101615.44;;;22.33;46.79
60854;BME280;48554;50.766;2.900;2022-07-05T00:14:19;101613.81;;;22.32;46.77
60854;BME280;48554;50.766;2.900;2022-07-05T00:16:39;101613.00;;;22.32;46.76
60854;BME280;48554;50.766;2.900;2022-07-05T00:18:59;101614.63;;;22.33;46.82
60854;BME280;48554;50.766;2.900;2022-07-05T00:21:19;101619.22;;;22.32;46.84
60854;BME280;48554;50.766;2.900;2022-07-05T00:23:40;101617.88;;;22.35;46.84
60854;BME280;48554;50.766;2.900;2022-07-05T00:26:00;101621.66;;;22.34;46.76
60854;BME280;48554;50.766;2.900;2022-07-05T00:28:20;101617.28;;;22.28;47.02
60854;BME280;48554;50.766;2.900;2022-07-05T00:30:41;101612.97;;;22.27;47.02
60854;BME280;48554;50.766;2.900;2022-07-05T00:33:01;101619.19;;;22.27;47.03
60854;BME280;48554;50.766;2.900;2022-07-05T00:35:21;101614.84;;;22.26;46.87
60854;BME280;48554;50.766;2.900;2022-07-05T00:37:42;101608.34;;;22.22;47.18
60854;BME280;48554;50.766;2.900;2022-07-05T00:40:03;101604.56;;;22.23;47.04
60854;BME280;48554;50.766;2.900;2022-07-05T00:42:24;101607.81;;;22.25;47.08
60854;BME280;48554;50.766;2.900;2022-07-05T00:44:44;101605.66;;;22.22;46.92
60854;BME280;48554;50.766;2.900;2022-07-05T00:47:05;101608.81;;;22.19;47.39
60854;BME280;48554;50.766;2.900;2022-07-05T00:49:26;101606.34;;;22.12;47.48
60854;BME280;48554;50.766;2.900;2022-07-05T00:51:46;101599.56;;;22.10;47.64
60854;BME280;48554;50.766;2.900;2022-07-05T00:54:07;101604.13;;;22.09;47.79
60854;BME280;48554;50.766;2.900;2022-07-05T00:56:28;101608.47;;;22.10;47.62
60854;BME280;48554;50.766;2.900;2022-07-05T00:58:48;101606.84;;;22.09;47.72
60854;BME280;48554;50.766;2.900;2022-07-05T01:01:09;101604.97;;;22.10;47.56
60854;BME280;48554;50.766;2.900;2022-07-05T01:03:30;101604.69;;;22.11;47.58
60854;BME280;48554;50.766;2.900;2022-07-05T01:05:50;101602.00;;;22.11;47.37
60854;BME280;48554;50.766;2.900;2022-07-05T01:08:12;101595.50;;;22.07;47.80
60854;BME280;48554;50.766;2.900;2022-07-05T01:10:33;101598.22;;;22.07;47.62
60854;BME280;48554;50.766;2.900;2022-07-05T01:12:53;101594.66;;;22.07;47.75
60854;BME280;48554;50.766;2.900;2022-07-05T01:15:16;101597.38;;;22.07;47.74
60854;BME280;48554;50.766;2.900;2022-07-05T01:17:37;101600.34;;;22.05;47.60
60854;BME280;48554;50.766;2.900;2022-07-05T01:19:57;101594.66;;;22.07;47.74
60854;BME280;48554;50.766;2.900;2022-07-05T01:22:19;101597.66;;;22.05;47.91
60854;BME280;48554;50.766;2.900;2022-07-05T01:24:40;101593.06;;;22.06;47.88
60854;BME280;48554;50.766;2.900;2022-07-05T01:27:01;101600.34;;;22.05;47.82
60854;BME280;48554;50.766;2.900;2022-07-05T01:29:21;101593.88;;;22.06;47.81
60854;BME280;48554;50.766;2.900;2022-07-05T01:31:41;101597.66;;;22.05;48.02
60854;BME280;48554;50.766;2.900;2022-07-05T01:34:02;101592.78;;;22.02;47.75
60854;BME280;48554;50.766;2.900;2022-07-05T01:36:22;101590.88;;;22.02;47.63
60854;BME280;48554;50.766;2.900;2022-07-05T01:38:43;101592.78;;;22.02;47.94
60854;BME280;48554;50.766;2.900;2022-07-05T01:41:03;101601.41;;;22.04;47.67
60854;BME280;48554;50.766;2.900;2022-07-05T01:43:24;101591.13;;;22.01;47.99
60854;BME280;48554;50.766;2.900;2022-07-05T01:45:46;101586.81;;;22.00;47.81
60854;BME280;48554;50.766;2.900;2022-07-05T01:48:08;101584.91;;;22.00;47.76
60854;BME280;48554;50.766;2.900;2022-07-05T01:50:31;101580.56;;;21.99;47.76
60854;BME280;48554;50.766;2.900;2022-07-05T01:52:53;101584.34;;;21.98;47.87
60854;BME280;48554;50.766;2.900;2022-07-05T01:55:13;101583.00;;;21.96;47.92
60854;BME280;48554;50.766;2.900;2022-07-05T01:57:34;101589.50;;;22.00;47.89
60854;BME280;48554;50.766;2.900;2022-07-05T01:59:54;101581.38;;;21.95;47.84
60854;BME280;48554;50.766;2.900;2022-07-05T02:02:14;101583.03;;;22.01;47.83
60854;BME280;48554;50.766;2.900;2022-07-05T02:04:36;101582.47;;;21.99;47.79
60854;BME280;48554;50.766;2.900;2022-07-05T02:06:56;101580.56;;;21.99;47.94
60854;BME280;48554;50.766;2.900;2022-07-05T02:09:17;101581.41;;;22.00;48.03
60854;BME280;48554;50.766;2.900;2022-07-05T02:11:37;101579.47;;;21.95;48.03
60854;BME280;48554;50.766;2.900;2022-07-05T02:13:58;101583.50;;;21.93;48.40
60854;BME280;48554;50.766;2.900;2022-07-05T02:16:22;101573.78;;;21.92;48.37
60854;BME280;48554;50.766;2.900;2022-07-05T02:18:42;101585.66;;;21.91;48.13
60854;BME280;48554;50.766;2.900;2022-07-05T02:21:03;101577.56;;;21.91;48.12
60854;BME280;48554;50.766;2.900;2022-07-05T02:23:23;101584.56;;;21.92;48.25
60854;BME280;48554;50.766;2.900;2022-07-05T02:25:43;101583.50;;;21.93;48.08
60854;BME280;48554;50.766;2.900;2022-07-05T02:28:04;101588.59;;;21.89;48.06
60854;BME280;48554;50.766;2.900;2022-07-05T02:30:24;101584.03;;;21.90;48.16
60854;BME280;48554;50.766;2.900;2022-07-05T02:32:45;101587.78;;;21.89;48.31
60854;BME280;48554;50.766;2.900;2022-07-05T02:35:06;101593.19;;;21.89;48.35
60854;BME280;48554;50.766;2.900;2022-07-05T02:37:27;101592.38;;;21.88;48.30
60854;BME280;48554;50.766;2.900;2022-07-05T02:39:48;101588.59;;;21.89;48.18
60854;BME280;48554;50.766;2.900;2022-07-05T02:42:08;101588.59;;;21.89;48.13
60854;BME280;48554;50.766;2.900;2022-07-05T02:44:28;101591.28;;;21.89;48.27
60854;BME280;48554;50.766;2.900;2022-07-05T02:46:48;101591.56;;;21.88;48.23
60854;BME280;48554;50.766;2.900;2022-07-05T02:49:08;101586.66;;;21.85;48.45
60854;BME280;48554;50.766;2.900;2022-07-05T02:51:29;101590.44;;;21.84;48.36
60854;BME280;48554;50.766;2.900;2022-07-05T02:53:49;101592.63;;;21.87;48.19
60854;BME280;48554;50.766;2.900;2022-07-05T02:56:09;101595.31;;;21.87;48.36
60854;BME280;48554;50.766;2.900;2022-07-05T02:58:30;101593.13;;;21.84;48.57
60854;BME280;48554;50.766;2.900;2022-07-05T03:00:50;101588.31;;;21.86;48.25
60854;BME280;48554;50.766;2.900;2022-07-05T03:03:10;101594.25;;;21.88;48.10
60854;BME280;48554;50.766;2.900;2022-07-05T03:05:31;101592.06;;;21.85;48.03
60854;BME280;48554;50.766;2.900;2022-07-05T03:07:51;101594.22;;;21.83;48.42
60854;BME280;48554;50.766;2.900;2022-07-05T03:10:11;101597.16;;;21.81;48.03
60854;BME280;48554;50.766;2.900;2022-07-05T03:12:31;101597.16;;;21.81;48.43
60854;BME280;48554;50.766;2.900;2022-07-05T03:14:52;101599.09;;;21.86;48.15
60854;BME280;48554;50.766;2.900;2022-07-05T03:17:12;101597.44;;;21.85;48.07
60854;BME280;48554;50.766;2.900;2022-07-05T03:19:32;101597.75;;;21.88;48.14
60854;BME280;48554;50.766;2.900;2022-07-05T03:21:53;101592.88;;;21.85;48.26
60854;BME280;48554;50.766;2.900;2022-07-05T03:24:13;101585.31;;;21.87;48.25
60854;BME280;48554;50.766;2.900;2022-07-05T03:26:33;101591.56;;;21.88;48.17
60854;BME280;48554;50.766;2.900;2022-07-05T03:28:53;101593.97;;;21.89;48.20
60854;BME280;48554;50.766;2.900;2022-07-05T03:31:13;101594.50;;;21.86;48.07
60854;BME280;48554;50.766;2.900;2022-07-05T03:33:34;101597.75;;;21.88;47.93
60854;BME280;48554;50.766;2.900;2022-07-05T03:35:54;101602.91;;;21.90;47.89
60854;BME280;48554;50.766;2.900;2022-07-05T03:38:14;101592.88;;;21.85;48.13
60854;BME280;48554;50.766;2.900;2022-07-05T03:40:35;101599.09;;;21.86;48.16
60854;BME280;48554;50.766;2.900;2022-07-05T03:42:55;101604.50;;;21.86;48.12
60854;BME280;48554;50.766;2.900;2022-07-05T03:45:15;101604.50;;;21.86;48.24
60854;BME280;48554;50.766;2.900;2022-07-05T03:47:36;101602.84;;;21.85;48.14
60854;BME280;48554;50.766;2.900;2022-07-05T03:49:56;101609.56;;;21.82;48.20
60854;BME280;48554;50.766;2.900;2022-07-05T03:52:16;101608.75;;;21.82;48.07
60854;BME280;48554;50.766;2.900;2022-07-05T03:54:37;101603.34;;;21.82;48.04
60854;BME280;48554;50.766;2.900;2022-07-05T03:56:57;101606.06;;;21.82;48.19
60854;BME280;48554;50.766;2.900;2022-07-05T03:59:17;101606.06;;;21.82;48.15
60854;BME280;48554;50.766;2.900;2022-07-05T04:01:37;101603.88;;;21.78;48.24
60854;BME280;48554;50.766;2.900;2022-07-05T04:03:58;101617.13;;;21.80;48.24
60854;BME280;48554;50.766;2.900;2022-07-05T04:06:18;101607.38;;;21.79;48.36
60854;BME280;48554;50.766;2.900;2022-07-05T04:08:38;101614.66;;;21.78;48.15
60854;BME280;48554;50.766;2.900;2022-07-05T04:10:59;101627.59;;;21.76;48.14
60854;BME280;48554;50.766;2.900;2022-07-05T04:13:19;101622.19;;;21.76;48.25
60854;BME280;48554;50.766;2.900;2022-07-05T04:15:39;101621.38;;;21.76;48.40
60854;BME280;48554;50.766;2.900;2022-07-05T04:17:59;101614.34;;;21.75;48.37
60854;BME280;48554;50.766;2.900;2022-07-05T04:20:21;101620.81;;;21.74;48.27
60854;BME280;48554;50.766;2.900;2022-07-05T04:22:42;101628.09;;;21.73;48.18
60854;BME280;48554;50.766;2.900;2022-07-05T04:25:02;101628.09;;;21.73;48.36
60854;BME280;48554;50.766;2.900;2022-07-05T04:27:22;101629.16;;;21.72;48.55
60854;BME280;48554;50.766;2.900;2022-07-05T04:29:43;101636.16;;;21.68;48.36
60854;BME280;48554;50.766;2.900;2022-07-05T04:32:03;101629.63;;;21.64;48.47
60854;BME280;48554;50.766;2.900;2022-07-05T04:34:24;101631.81;;;21.67;48.46
60854;BME280;48554;50.766;2.900;2022-07-05T04:36:44;101635.63;;;21.71;48.49
60854;BME280;48554;50.766;2.900;2022-07-05T04:39:04;101636.38;;;21.67;48.56
60854;BME280;48554;50.766;2.900;2022-07-05T04:41:24;101639.78;;;21.57;48.87
60854;BME280;48554;50.766;2.900;2022-07-05T04:43:45;101641.09;;;21.54;48.86
60854;BME280;48554;50.766;2.900;2022-07-05T04:46:05;101637.28;;;21.50;49.22
60854;BME280;48554;50.766;2.900;2022-07-05T04:48:25;101639.16;;;21.50;49.24
60854;BME280;48554;50.766;2.900;2022-07-05T04:50:46;101639.16;;;21.50;49.28
60854;BME280;48554;50.766;2.900;2022-07-05T04:53:06;101644.56;;;21.50;49.24
60854;BME280;48554;50.766;2.900;2022-07-05T04:55:26;101637.03;;;21.52;48.98
60854;BME280;48554;50.766;2.900;2022-07-05T04:57:47;101643.50;;;21.51;49.04
60854;BME280;48554;50.766;2.900;2022-07-05T05:00:09;101642.94;;;21.49;49.37
60854;BME280;48554;50.766;2.900;2022-07-05T05:02:30;101647.25;;;21.50;49.24
60854;BME280;48554;50.766;2.900;2022-07-05T05:04:50;101649.38;;;21.48;49.56
60854;BME280;48554;50.766;2.900;2022-07-05T05:07:10;101651.28;;;21.47;49.50
60854;BME280;48554;50.766;2.900;2022-07-05T05:09:30;101645.88;;;21.47;49.34
60854;BME280;48554;50.766;2.900;2022-07-05T05:11:51;101649.16;;;21.49;49.33
60854;BME280;48554;50.766;2.900;2022-07-05T05:14:11;101650.47;;;21.47;49.39
60854;BME280;48554;50.766;2.900;2022-07-05T05:16:31;101664.00;;;21.52;49.46
60854;BME280;48554;50.766;2.900;2022-07-05T05:18:51;101655.66;;;21.53;49.08
60854;BME280;48554;50.766;2.900;2022-07-05T05:21:12;101658.72;;;21.62;49.53
60854;BME280;48554;50.766;2.900;2022-07-05T05:23:32;101654.47;;;21.66;48.81
60854;BME280;48554;50.766;2.900;2022-07-05T05:25:52;101660.66;;;21.67;48.96
60854;BME280;48554;50.766;2.900;2022-07-05T05:28:12;101651.44;;;21.63;49.16
60854;BME280;48554;50.766;2.900;2022-07-05T05:30:33;101666.88;;;21.67;49.12
60854;BME280;48554;50.766;2.900;2022-07-05T05:32:53;101666.28;;;21.65;49.50
60854;BME280;48554;50.766;2.900;2022-07-05T05:35:13;101672.78;;;21.64;49.38
60854;BME280;48554;50.766;2.900;2022-07-05T05:37:53;101674.16;;;21.67;49.49
60854;BME280;48554;50.766;2.900;2022-07-05T05:40:15;101677.16;;;21.70;49.21
60854;BME280;48554;50.766;2.900;2022-07-05T05:42:35;101674.53;;;21.75;49.21
60854;BME280;48554;50.766;2.900;2022-07-05T05:44:55;101684.00;;;21.78;48.94
60854;BME280;48554;50.766;2.900;2022-07-05T05:47:16;101682.34;;;21.77;49.19
60854;BME280;48554;50.766;2.900;2022-07-05T05:49:36;101684.28;;;21.82;48.94
60854;BME280;48554;50.766;2.900;2022-07-05T05:51:56;101682.72;;;21.86;49.01
60854;BME280;48554;50.766;2.900;2022-07-05T05:54:17;101689.50;;;21.88;49.72
60854;BME280;48554;50.766;2.900;2022-07-05T05:56:37;101682.16;;;21.84;50.90
60854;BME280;48554;50.766;2.900;2022-07-05T05:58:58;101678.38;;;21.85;51.18
60854;BME280;48554;50.766;2.900;2022-07-05T06:01:18;101681.03;;;21.79;52.86
60854;BME280;48554;50.766;2.900;2022-07-05T06:03:38;101681.88;;;21.80;53.17
60854;BME280;48554;50.766;2.900;2022-07-05T06:05:58;101679.41;;;21.78;52.91
60854;BME280;48554;50.766;2.900;2022-07-05T06:08:19;101690.19;;;21.78;52.64
60854;BME280;48554;50.766;2.900;2022-07-05T06:10:39;101682.63;;;21.75;52.66
60854;BME280;48554;50.766;2.900;2022-07-05T06:13:04;101682.06;;;21.73;52.78
60854;BME280;48554;50.766;2.900;2022-07-05T06:15:25;101699.34;;;21.77;52.00
60854;BME280;48554;50.766;2.900;2022-07-05T06:17:46;101693.94;;;21.77;52.77
60854;BME280;48554;50.766;2.900;2022-07-05T06:20:11;101691.69;;;21.69;52.19
60854;BME280;48554;50.766;2.900;2022-07-05T06:22:32;101697.09;;;21.69;52.26
60854;BME280;48554;50.766;2.900;2022-07-05T06:24:52;101696.34;;;21.74;51.96
60854;BME280;48554;50.766;2.900;2022-07-05T06:27:12;101696.34;;;21.74;52.03
60854;BME280;48554;50.766;2.900;2022-07-05T06:29:33;101709.06;;;21.78;52.00
60854;BME280;48554;50.766;2.900;2022-07-05T06:31:53;101707.69;;;21.76;52.26
60854;BME280;48554;50.766;2.900;2022-07-05T06:34:13;101711.22;;;21.76;52.29
60854;BME280;48554;50.766;2.900;2022-07-05T06:36:33;101712.34;;;21.80;51.88
60854;BME280;48554;50.766;2.900;2022-07-05T06:38:53;101716.66;;;21.82;51.93
60854;BME280;48554;50.766;2.900;2022-07-05T06:41:14;101717.47;;;21.82;52.22
60854;BME280;48554;50.766;2.900;2022-07-05T06:43:34;101715.84;;;21.81;51.90
60854;BME280;48554;50.766;2.900;2022-07-05T06:45:54;101722.09;;;21.87;51.61
60854;BME280;48554;50.766;2.900;2022-07-05T06:48:14;101728.06;;;21.89;51.68
60854;BME280;48554;50.766;2.900;2022-07-05T06:50:40;101718.84;;;21.85;51.71
60854;BME280;48554;50.766;2.900;2022-07-05T06:53:00;101721.31;;;21.86;51.85
60854;BME280;48554;50.766;2.900;2022-07-05T06:55:21;101721.00;;;21.83;51.82
60854;BME280;48554;50.766;2.900;2022-07-05T06:57:42;101728.00;;;21.84;52.43
60854;BME280;48554;50.766;2.900;2022-07-05T07:00:03;101726.13;;;21.84;52.51
60854;BME280;48554;50.766;2.900;2022-07-05T07:02:24;101728.00;;;21.84;52.32
60854;BME280;48554;50.766;2.900;2022-07-05T07:04:44;101741.81;;;21.87;52.34
60854;BME280;48554;50.766;2.900;2022-07-05T07:07:05;101743.63;;;21.82;52.42
60854;BME280;48554;50.766;2.900;2022-07-05T07:09:25;101736.09;;;21.84;52.20
60854;BME280;48554;50.766;2.900;2022-07-05T07:11:46;101739.38;;;21.86;52.08
60854;BME280;48554;50.766;2.900;2022-07-05T07:14:06;101738.06;;;21.88;52.11
60854;BME280;48554;50.766;2.900;2022-07-05T07:16:26;101740.75;;;21.88;52.24
60854;BME280;48554;50.766;2.900;2022-07-05T07:18:47;101741.75;;;21.82;52.21
60854;BME280;48554;50.766;2.900;2022-07-05T07:21:07;101748.84;;;21.88;52.17
60854;BME280;48554;50.766;2.900;2022-07-05T07:23:27;101746.97;;;21.89;52.39
60854;BME280;48554;50.766;2.900;2022-07-05T07:25:47;101751.31;;;21.90;52.33
60854;BME280;48554;50.766;2.900;2022-07-05T07:28:08;101750.78;;;21.93;52.21
60854;BME280;48554;50.766;2.900;2022-07-05T07:30:28;101749.72;;;21.94;52.35
60854;BME280;48554;50.766;2.900;2022-07-05T07:32:48;101739.72;;;21.94;52.41
60854;BME280;48554;50.766;2.900;2022-07-05T07:35:09;101753.53;;;21.98;52.33
60854;BME280;48554;50.766;2.900;2022-07-05T07:37:29;101749.75;;;21.99;52.27
60854;BME280;48554;50.766;2.900;2022-07-05T07:39:49;101749.28;;;22.02;52.44
60854;BME280;48554;50.766;2.900;2022-07-05T07:42:09;101744.41;;;22.04;51.71
60854;BME280;48554;50.766;2.900;2022-07-05T07:44:30;101749.56;;;22.06;51.75
60854;BME280;48554;50.766;2.900;2022-07-05T07:46:50;101758.47;;;22.06;51.93
60854;BME280;48554;50.766;2.900;2022-07-05T07:49:10;101759.06;;;22.08;51.82
60854;BME280;48554;50.766;2.900;2022-07-05T07:51:31;101758.25;;;22.08;51.89
60854;BME280;48554;50.766;2.900;2022-07-05T07:53:51;101768.84;;;22.14;51.32
60854;BME280;48554;50.766;2.900;2022-07-05T07:56:11;101765.06;;;22.15;51.17
60854;BME280;48554;50.766;2.900;2022-07-05T07:58:31;101768.34;;;22.17;51.09
60854;BME280;48554;50.766;2.900;2022-07-05T08:00:52;101770.31;;;22.22;50.86
60854;BME280;48554;50.766;2.900;2022-07-05T08:03:12;101767.34;;;22.23;50.67
60854;BME280;48554;50.766;2.900;2022-07-05T08:05:32;101762.50;;;22.26;50.61
60854;BME280;48554;50.766;2.900;2022-07-05T08:07:52;101761.94;;;22.23;51.65
60854;BME280;48554;50.766;2.900;2022-07-05T08:10:13;101761.94;;;22.23;51.03
60854;BME280;48554;50.766;2.900;2022-07-05T08:12:33;101761.44;;;22.27;50.77
60854;BME280;48554;50.766;2.900;2022-07-05T08:14:53;101761.44;;;22.27;50.90
60854;BME280;48554;50.766;2.900;2022-07-05T08:17:13;101763.63;;;22.30;50.71
60854;BME280;48554;50.766;2.900;2022-07-05T08:19:34;101760.94;;;22.30;50.79
60854;BME280;48554;50.766;2.900;2022-07-05T08:21:55;101764.19;;;22.32;50.69
60854;BME280;48554;50.766;2.900;2022-07-05T08:24:15;101767.47;;;22.34;50.52
60854;BME280;48554;50.766;2.900;2022-07-05T08:26:36;101766.94;;;22.37;50.62
60854;BME280;48554;50.766;2.900;2022-07-05T08:28:58;101772.06;;;22.38;50.64
60854;BME280;48554;50.766;2.900;2022-07-05T08:31:20;101771.00;;;22.39;50.62
60854;BME280;48554;50.766;2.900;2022-07-05T08:33:40;101775.09;;;22.42;50.73
60854;BME280;48554;50.766;2.900;2022-07-05T08:36:00;101776.72;;;22.43;50.24
60854;BME280;48554;50.766;2.900;2022-07-05T08:38:21;101777.53;;;22.43;50.17
60854;BME280;48554;50.766;2.900;2022-07-05T08:40:46;101776.22;;;22.46;50.31
60854;BME280;48554;50.766;2.900;2022-07-05T08:43:07;101772.44;;;22.47;50.23
60854;BME280;48554;50.766;2.900;2022-07-05T08:45:28;101781.09;;;22.49;50.10
60854;BME280;48554;50.766;2.900;2022-07-05T08:47:50;101777.31;;;22.50;50.06
60854;BME280;48554;50.766;2.900;2022-07-05T08:50:11;101766.28;;;22.52;50.12
60854;BME280;48554;50.766;2.900;2022-07-05T08:52:33;101773.56;;;22.51;49.76
60854;BME280;48554;50.766;2.900;2022-07-05T08:54:54;101764.13;;;22.54;49.70
60854;BME280;48554;50.766;2.900;2022-07-05T08:57:15;101765.50;;;22.56;49.76
60854;BME280;48554;50.766;2.900;2022-07-05T08:59:35;101769.25;;;22.55;49.81
60854;BME280;48554;50.766;2.900;2022-07-05T09:01:56;101763.38;;;22.58;49.73
60854;BME280;48554;50.766;2.900;2022-07-05T09:04:17;101772.00;;;22.60;49.72
60854;BME280;48554;50.766;2.900;2022-07-05T09:06:39;101773.66;;;22.61;49.72
60854;BME280;48554;50.766;2.900;2022-07-05T09:08:59;101772.28;;;22.59;49.69
60854;BME280;48554;50.766;2.900;2022-07-05T09:11:23;101771.19;;;22.60;49.48
60854;BME280;48554;50.766;2.900;2022-07-05T09:13:48;101770.72;;;22.63;49.44
60854;BME280;48554;50.766;2.900;2022-07-05T09:16:09;101781.22;;;22.64;49.58
60854;BME280;48554;50.766;2.900;2022-07-05T09:21:19;101790.72;;;22.67;49.52
60854;BME280;48554;50.766;2.900;2022-07-05T09:23:40;101776.91;;;22.63;49.40
60854;BME280;48554;50.766;2.900;2022-07-05T09:26:03;101782.03;;;22.65;49.34
60854;BME280;48554;50.766;2.900;2022-07-05T09:28:23;101782.59;;;22.67;49.41
60854;BME280;48554;50.766;2.900;2022-07-05T09:30:43;101785.59;;;22.65;49.45
60854;BME280;48554;50.766;2.900;2022-07-05T09:33:05;101787.19;;;22.67;49.28
60854;BME280;48554;50.766;2.900;2022-07-05T09:35:25;101783.94;;;22.64;49.42
60854;BME280;48554;50.766;2.900;2022-07-05T09:37:46;101783.41;;;22.68;49.15
60854;BME280;48554;50.766;2.900;2022-07-05T09:40:06;101788.00;;;22.67;49.15
60854;BME280;48554;50.766;2.900;2022-07-05T09:42:27;101782.59;;;22.67;49.33
60854;BME280;48554;50.766;2.900;2022-07-05T09:44:55;101780.44;;;22.64;49.13
60854;BME280;48554;50.766;2.900;2022-07-05T09:47:18;101793.41;;;22.67;49.23
60854;BME280;48554;50.766;2.900;2022-07-05T09:49:41;101786.38;;;22.66;49.11
60854;BME280;48554;50.766;2.900;2022-07-05T09:52:01;101791.00;;;22.65;49.17
60854;BME280;48554;50.766;2.900;2022-07-05T09:54:21;101786.38;;;22.66;49.14
60854;BME280;48554;50.766;2.900;2022-07-05T09:56:48;101793.41;;;22.67;48.93
60854;BME280;48554;50.766;2.900;2022-07-05T09:59:12;101792.59;;;22.67;49.04
60854;BME280;48554;50.766;2.900;2022-07-05T10:01:33;101798.81;;;22.67;48.99
60854;BME280;48554;50.766;2.900;2022-07-05T10:03:57;101796.69;;;22.69;48.97
60854;BME280;48554;50.766;2.900;2022-07-05T10:06:19;101795.88;;;22.69;49.00
60854;BME280;48554;50.766;2.900;2022-07-05T10:08:39;101809.09;;;22.70;48.97
60854;BME280;48554;50.766;2.900;2022-07-05T10:10:59;101807.47;;;22.69;48.71
60854;BME280;48554;50.766;2.900;2022-07-05T10:13:20;101804.78;;;22.69;48.82
60854;BME280;48554;50.766;2.900;2022-07-05T10:15:40;101803.69;;;22.70;48.52
60854;BME280;48554;50.766;2.900;2022-07-05T10:18:11;101804.22;;;22.67;48.78
60854;BME280;48554;50.766;2.900;2022-07-05T10:22:58;101820.75;;;22.71;48.56
60854;BME280;48554;50.766;2.900;2022-07-05T10:25:18;101815.28;;;22.65;48.66
60854;BME280;48554;50.766;2.900;2022-07-05T10:27:39;101821.00;;;22.69;48.47
60854;BME280;48554;50.766;2.900;2022-07-05T10:29:59;101817.47;;;22.69;48.36
60854;BME280;48554;50.766;2.900;2022-07-05T10:32:22;101821.78;;;22.70;48.41
60854;BME280;48554;50.766;2.900;2022-07-05T10:34:43;101822.06;;;22.68;48.06
60854;BME280;48554;50.766;2.900;2022-07-05T10:37:05;101820.44;;;22.67;48.56
60854;BME280;48554;50.766;2.900;2022-07-05T10:39:25;101809.63;;;22.67;48.19
60854;BME280;48554;50.766;2.900;2022-07-05T10:41:46;101817.72;;;22.67;48.28
60854;BME280;48554;50.766;2.900;2022-07-05T10:44:07;101814.22;;;22.67;47.98
60854;BME280;48554;50.766;2.900;2022-07-05T10:46:37;101819.09;;;22.70;48.00
60854;BME280;48554;50.766;2.900;2022-07-05T10:49:15;101824.50;;;22.70;48.10
60854;BME280;48554;50.766;2.900;2022-07-05T10:51:35;101817.47;;;22.69;48.21
60854;BME280;48554;50.766;2.900;2022-07-05T10:56:19;101822.59;;;22.70;47.89
60854;BME280;48554;50.766;2.900;2022-07-05T10:58:45;101821.78;;;22.70;48.06
60854;BME280;48554;50.766;2.900;2022-07-05T11:03:33;101826.44;;;22.74;48.19
60854;BME280;48554;50.766;2.900;2022-07-05T11:05:54;101830.47;;;22.72;47.58
60854;BME280;48554;50.766;2.900;2022-07-05T11:08:14;101825.63;;;22.74;47.68
60854;BME280;48554;50.766;2.900;2022-07-05T11:10:34;101832.66;;;22.75;47.71
60854;BME280;48554;50.766;2.900;2022-07-05T11:12:55;101831.84;;;22.74;47.37
60854;BME280;48554;50.766;2.900;2022-07-05T11:15:15;101837.25;;;22.74;47.72
60854;BME280;48554;50.766;2.900;2022-07-05T11:17:35;101828.84;;;22.71;47.53
60854;BME280;48554;50.766;2.900;2022-07-05T11:20:03;101833.22;;;22.77;47.42
60854;BME280;48554;50.766;2.900;2022-07-05T11:22:24;101829.94;;;22.75;47.42
60854;BME280;48554;50.766;2.900;2022-07-05T11:24:45;101827.25;;;22.75;47.51
60854;BME280;48554;50.766;2.900;2022-07-05T11:27:10;101828.91;;;22.76;47.30
60854;BME280;48554;50.766;2.900;2022-07-05T11:32:34;101832.16;;;22.78;47.22
60854;BME280;48554;50.766;2.900;2022-07-05T11:34:55;101825.09;;;22.77;47.27
60854;BME280;48554;50.766;2.900;2022-07-05T11:37:31;101819.69;;;22.77;47.27
60854;BME280;48554;50.766;2.900;2022-07-05T11:42:26;101821.34;;;22.78;47.43
60854;BME280;48554;50.766;2.900;2022-07-05T11:44:50;101832.44;;;22.81;47.26
60854;BME280;48554;50.766;2.900;2022-07-05T11:47:10;101831.63;;;22.81;47.17
60854;BME280;48554;50.766;2.900;2022-07-05T11:49:31;101831.63;;;22.81;47.31
60854;BME280;48554;50.766;2.900;2022-07-05T11:52:09;101831.41;;;22.82;47.34
60854;BME280;48554;50.766;2.900;2022-07-05T11:54:31;101834.38;;;22.86;47.32
60854;BME280;48554;50.766;2.900;2022-07-05T11:56:52;101823.00;;;22.84;47.02
60854;BME280;48554;50.766;2.900;2022-07-05T11:59:20;101827.09;;;22.86;47.09
60854;BME280;48554;50.766;2.900;2022-07-05T12:01:44;101833.28;;;22.87;47.16
60854;BME280;48554;50.766;2.900;2022-07-05T12:04:04;101826.28;;;22.86;46.99
60854;BME280;48554;50.766;2.900;2022-07-05T12:06:24;101826.84;;;22.88;47.03
60854;BME280;48554;50.766;2.900;2022-07-05T12:08:45;101830.34;;;22.89;47.19
60854;BME280;48554;50.766;2.900;2022-07-05T12:11:05;101833.06;;;22.89;47.08
60854;BME280;48554;50.766;2.900;2022-07-05T12:13:25;101847.94;;;22.91;46.77
60854;BME280;48554;50.766;2.900;2022-07-05T12:15:46;101841.44;;;22.92;46.66
60854;BME280;48554;50.766;2.900;2022-07-05T12:18:07;101846.59;;;22.94;47.01
60854;BME280;48554;50.766;2.900;2022-07-05T12:20:27;101840.63;;;22.92;47.08
60854;BME280;48554;50.766;2.900;2022-07-05T12:22:48;101842.84;;;22.95;47.00
60854;BME280;48554;50.766;2.900;2022-07-05T12:25:12;101846.59;;;22.94;46.71
60854;BME280;48554;50.766;2.900;2022-07-05T12:27:35;101842.00;;;22.94;46.75
60854;BME280;48554;50.766;2.900;2022-07-05T12:29:56;101845.28;;;22.96;46.78
60854;BME280;48554;50.766;2.900;2022-07-05T12:32:16;101843.66;;;22.95;46.59